Equipo

Temporada

Mercado

Directiva

M. Valores

Torneos

Amistosos

Otras Secc.

Foro

Wiki / Ayuda

PcL News

Chat


Stats Históricas - ADRIAN TAVARES


temporada equipo CA RE VE PA RM TI EN AG CO DE MR
Actual PSOE 96,5 94,0 93,8 97,0 80,2 87,7 95,0 96,0 93,0 88,8 92
16/09/2019 - 10/11/2019 PSOE 97,5 96,0 95,8 98,0 80,7 88,7 97,0 97,5 94,0 89,8 93
22/07/2019 - 15/09/2019 PSOE 98,5 98,0 97,8 99,0 81,2 89,7 99,0 99,0 95,0 90,8 94
27/05/2019 - 21/07/2019 PSOE 98,5 98,0 97,8 99,0 81,2 89,7 99,0 99,0 95,0 90,8 94
01/04/2019 - 26/05/2019 LosBalcons 98,5 98,0 97,8 99,0 81,2 89,7 99,0 99,0 95,0 90,8 94
04/02/2019 - 31/03/2019 LosBalcons 98,5 98,0 97,8 99,0 81,2 89,7 99,0 99,0 95,0 90,8 94
10/12/2018 - 03/02/2019 LosBalcons 98,5 98,0 97,8 99,0 81,2 89,7 99,0 99,0 95,0 90,8 94
15/10/2018 - 09/12/2018 LosBalcons 98,5 98,0 97,8 99,0 81,2 89,7 99,0 99,0 95,0 90,8 94
20/08/2018 - 14/10/2018 LosBalcons 96,7 96,7 96,7 97,3 81,2 88,9 97,0 97,0 94,1 90,4 93
25/06/2018 - 19/08/2018 Salinas City 94,8 95,9 95,9 95,6 81,2 88,4 95,6 95,7 91,2 87,3 92
25/06/2018 - 19/08/2018 LosBalcons 94,8 95,9 95,9 95,6 81,2 88,4 95,6 95,7 91,2 87,3 92
30/04/2018 - 24/06/2018 Salinas City 93,2 94,9 94,9 92,1 75,8 87,6 94,1 94,1 90,4 86,9 90
05/03/2018 - 29/04/2018 Salinas City 91,6 94,0 93,9 90,6 75,8 84,1 92,5 92,5 89,7 81,2 88
08/01/2018 - 04/03/2018 Salinas City 90,1 93,0 93,0 89,0 75,8 80,6 90,9 91,0 84,2 80,8 86
13/11/2017 - 07/01/2018 Cen. Lechera 87,9 92,1 92,0 87,1 75,8 79,8 88,8 88,7 78,2 80,4 85
13/11/2017 - 07/01/2018 Salinas City 87,9 92,1 92,0 87,1 75,8 79,8 88,8 88,7 78,2 80,4 85
18/09/2017 - 12/11/2017 UD Arehujo 86,1 88,1 91,0 82,8 75,8 79,1 87,2 87,1 77,4 80,0 83
18/09/2017 - 12/11/2017 Cen. Lechera 86,1 88,1 91,0 82,8 75,8 79,1 87,2 87,1 77,4 80,0 83
24/07/2017 - 17/09/2017 UD Arehujo 82,5 86,7 86,7 80,8 75,4 77,9 85,2 81,8 76,3 79,2 81
29/05/2017 - 23/07/2017 UD Arehujo 80,4 85,1 79,0 78,7 74,8 76,6 83,0 77,4 74,6 78,2 78
03/04/2017 - 28/05/2017 UD Arehujo 78,0 77,5 75,7 74,7 74,0 75,0 80,7 75,0 73,0 77,0 76
03/04/2017 - 28/05/2017 SanApure. fc 78,0 77,5 75,7 74,7 74,0 75,0 80,7 75,0 73,0 77,0 76